sensor_id;sensor_type;location;lat;lon;timestamp;P1;durP1;ratioP1;P2;durP2;ratioP2
14019;SDS011;7085;51.428;6.796;2023-02-28T04:01:57;3.87;;;3.00;;
14019;SDS011;7085;51.428;6.796;2023-02-28T04:04:24;4.07;;;2.60;;
14019;SDS011;7085;51.428;6.796;2023-02-28T04:06:52;4.63;;;3.10;;
14019;SDS011;7085;51.428;6.796;2023-02-28T04:09:19;4.57;;;2.80;;
14019;SDS011;7085;51.428;6.796;2023-02-28T04:11:48;3.87;;;3.10;;
14019;SDS011;7085;51.428;6.796;2023-02-28T04:14:17;3.90;;;3.07;;
14019;SDS011;7085;51.428;6.796;2023-02-28T04:16:44;5.33;;;3.80;;
14019;SDS011;7085;51.428;6.796;2023-02-28T04:19:13;5.40;;;2.87;;
14019;SDS011;7085;51.428;6.796;2023-02-28T04:21:41;4.40;;;3.00;;
14019;SDS011;7085;51.428;6.796;2023-02-28T04:24:10;7.73;;;3.63;;
14019;SDS011;7085;51.428;6.796;2023-02-28T04:26:39;3.13;;;2.83;;
14019;SDS011;7085;51.428;6.796;2023-02-28T04:29:06;7.60;;;3.47;;
14019;SDS011;7085;51.428;6.796;2023-02-28T04:31:33;4.53;;;3.10;;
14019;SDS011;7085;51.428;6.796;2023-02-28T04:34:00;3.47;;;2.90;;
14019;SDS011;7085;51.428;6.796;2023-02-28T04:36:29;5.97;;;3.33;;
14019;SDS011;7085;51.428;6.796;2023-02-28T04:38:56;5.27;;;3.67;;
14019;SDS011;7085;51.428;6.796;2023-02-28T04:41:23;5.00;;;3.07;;
14019;SDS011;7085;51.428;6.796;2023-02-28T04:43:50;7.33;;;3.90;;
14019;SDS011;7085;51.428;6.796;2023-02-28T04:46:18;3.70;;;2.80;;
14019;SDS011;7085;51.428;6.796;2023-02-28T04:48:45;4.80;;;3.40;;
14019;SDS011;7085;51.428;6.796;2023-02-28T04:51:13;5.40;;;3.40;;
14019;SDS011;7085;51.428;6.796;2023-02-28T04:53:42;5.63;;;2.87;;
14019;SDS011;7085;51.428;6.796;2023-02-28T04:56:10;5.60;;;3.37;;
14019;SDS011;7085;51.428;6.796;2023-02-28T04:58:38;4.30;;;3.40;;
14019;SDS011;7085;51.428;6.796;2023-02-28T05:01:06;6.57;;;3.10;;
14019;SDS011;7085;51.428;6.796;2023-02-28T05:03:37;3.30;;;2.83;;
14019;SDS011;7085;51.428;6.796;2023-02-28T05:06:05;4.03;;;2.90;;
14019;SDS011;7085;51.428;6.796;2023-02-28T05:08:32;5.53;;;3.47;;
14019;SDS011;7085;51.428;6.796;2023-02-28T05:11:01;5.30;;;3.33;;
14019;SDS011;7085;51.428;6.796;2023-02-28T05:13:29;4.07;;;2.70;;
14019;SDS011;7085;51.428;6.796;2023-02-28T05:15:56;5.67;;;2.73;;
14019;SDS011;7085;51.428;6.796;2023-02-28T05:18:23;3.77;;;3.03;;
14019;SDS011;7085;51.428;6.796;2023-02-28T05:20:50;3.70;;;2.80;;
14019;SDS011;7085;51.428;6.796;2023-02-28T05:23:17;4.03;;;3.37;;
14019;SDS011;7085;51.428;6.796;2023-02-28T05:25:44;4.50;;;3.00;;
14019;SDS011;7085;51.428;6.796;2023-02-28T05:28:13;6.27;;;3.00;;
14019;SDS011;7085;51.428;6.796;2023-02-28T05:30:40;3.80;;;2.80;;
14019;SDS011;7085;51.428;6.796;2023-02-28T05:33:09;3.97;;;2.80;;
14019;SDS011;7085;51.428;6.796;2023-02-28T05:35:37;4.53;;;2.50;;
14019;SDS011;7085;51.428;6.796;2023-02-28T05:38:04;3.00;;;2.77;;
14019;SDS011;7085;51.428;6.796;2023-02-28T05:40:31;3.73;;;2.77;;
14019;SDS011;7085;51.428;6.796;2023-02-28T05:42:58;4.03;;;2.50;;
14019;SDS011;7085;51.428;6.796;2023-02-28T05:45:27;5.93;;;2.87;;
14019;SDS011;7085;51.428;6.796;2023-02-28T05:47:54;6.57;;;2.60;;
14019;SDS011;7085;51.428;6.796;2023-02-28T05:50:21;3.27;;;2.67;;
14019;SDS011;7085;51.428;6.796;2023-02-28T05:52:49;3.97;;;2.80;;
14019;SDS011;7085;51.428;6.796;2023-02-28T05:55:16;3.63;;;2.53;;
14019;SDS011;7085;51.428;6.796;2023-02-28T05:57:43;4.50;;;2.80;;
14019;SDS011;7085;51.428;6.796;2023-02-28T06:00:10;3.20;;;2.90;;
14019;SDS011;7085;51.428;6.796;2023-02-28T06:02:41;3.43;;;2.50;;
14019;SDS011;7085;51.428;6.796;2023-02-28T06:05:09;4.60;;;2.80;;
14019;SDS011;7085;51.428;6.796;2023-02-28T06:07:38;3.13;;;2.70;;
14019;SDS011;7085;51.428;6.796;2023-02-28T06:10:06;3.53;;;2.67;;
14019;SDS011;7085;51.428;6.796;2023-02-28T06:12:33;3.10;;;2.60;;
14019;SDS011;7085;51.428;6.796;2023-02-28T06:15:00;4.33;;;2.70;;
14019;SDS011;7085;51.428;6.796;2023-02-28T06:17:27;5.43;;;2.87;;
14019;SDS011;7085;51.428;6.796;2023-02-28T06:19:55;4.37;;;2.97;;
14019;SDS011;7085;51.428;6.796;2023-02-28T06:22:22;5.13;;;3.00;;
14019;SDS011;7085;51.428;6.796;2023-02-28T06:24:49;6.37;;;2.77;;
14019;SDS011;7085;51.428;6.796;2023-02-28T06:27:17;2.63;;;2.43;;
14019;SDS011;7085;51.428;6.796;2023-02-28T06:29:45;3.47;;;2.40;;
14019;SDS011;7085;51.428;6.796;2023-02-28T06:32:12;4.30;;;2.63;;
14019;SDS011;7085;51.428;6.796;2023-02-28T06:34:39;3.70;;;2.83;;
14019;SDS011;7085;51.428;6.796;2023-02-28T06:37:08;3.23;;;2.63;;
14019;SDS011;7085;51.428;6.796;2023-02-28T06:39:35;3.33;;;2.63;;
14019;SDS011;7085;51.428;6.796;2023-02-28T06:42:02;5.27;;;3.00;;
14019;SDS011;7085;51.428;6.796;2023-02-28T06:44:29;4.03;;;2.47;;
14019;SDS011;7085;51.428;6.796;2023-02-28T06:47:00;3.63;;;2.60;;
14019;SDS011;7085;51.428;6.796;2023-02-28T06:49:28;3.53;;;2.63;;
14019;SDS011;7085;51.428;6.796;2023-02-28T06:51:55;5.23;;;2.83;;
14019;SDS011;7085;51.428;6.796;2023-02-28T06:54:23;6.83;;;2.73;;
14019;SDS011;7085;51.428;6.796;2023-02-28T06:56:50;5.50;;;3.00;;
14019;SDS011;7085;51.428;6.796;2023-02-28T06:59:19;9.07;;;2.80;;
14019;SDS011;7085;51.428;6.796;2023-02-28T07:01:46;4.03;;;3.00;;
14019;SDS011;7085;51.428;6.796;2023-02-28T07:04:13;4.97;;;2.87;;
14019;SDS011;7085;51.428;6.796;2023-02-28T07:06:40;6.80;;;2.97;;
14019;SDS011;7085;51.428;6.796;2023-02-28T07:09:07;3.00;;;2.60;;
14019;SDS011;7085;51.428;6.796;2023-02-28T07:11:37;3.37;;;2.80;;
14019;SDS011;7085;51.428;6.796;2023-02-28T07:14:04;4.33;;;2.70;;
14019;SDS011;7085;51.428;6.796;2023-02-28T07:16:31;3.80;;;2.50;;
14019;SDS011;7085;51.428;6.796;2023-02-28T07:18:58;5.07;;;2.93;;
14019;SDS011;7085;51.428;6.796;2023-02-28T07:21:25;8.07;;;3.37;;
14019;SDS011;7085;51.428;6.796;2023-02-28T07:23:52;4.00;;;2.93;;
14019;SDS011;7085;51.428;6.796;2023-02-28T07:26:19;3.67;;;2.93;;
14019;SDS011;7085;51.428;6.796;2023-02-28T07:28:48;3.00;;;2.70;;
14019;SDS011;7085;51.428;6.796;2023-02-28T07:31:15;3.50;;;2.90;;
14019;SDS011;7085;51.428;6.796;2023-02-28T07:33:43;5.60;;;3.23;;
14019;SDS011;7085;51.428;6.796;2023-02-28T07:36:11;3.50;;;2.87;;
14019;SDS011;7085;51.428;6.796;2023-02-28T07:41:29;4.93;;;2.93;;
14019;SDS011;7085;51.428;6.796;2023-02-28T07:44:00;3.43;;;3.00;;
14019;SDS011;7085;51.428;6.796;2023-02-28T07:46:28;4.23;;;2.83;;
14019;SDS011;7085;51.428;6.796;2023-02-28T07:49:00;3.53;;;2.50;;
14019;SDS011;7085;51.428;6.796;2023-02-28T07:51:28;6.03;;;3.00;;
14019;SDS011;7085;51.428;6.796;2023-02-28T07:53:55;9.77;;;3.10;;
14019;SDS011;7085;51.428;6.796;2023-02-28T07:56:22;5.33;;;2.73;;
14019;SDS011;7085;51.428;6.796;2023-02-28T07:58:49;3.00;;;2.23;;
14019;SDS011;7085;51.428;6.796;2023-02-28T08:01:17;2.70;;;2.30;;
14019;SDS011;7085;51.428;6.796;2023-02-28T08:03:44;3.57;;;2.77;;
14019;SDS011;7085;51.428;6.796;2023-02-28T08:06:15;4.30;;;2.80;;
14019;SDS011;7085;51.428;6.796;2023-02-28T08:08:42;3.00;;;2.73;;
14019;SDS011;7085;51.428;6.796;2023-02-28T08:11:09;3.13;;;2.87;;
14019;SDS011;7085;51.428;6.796;2023-02-28T08:13:36;4.20;;;2.20;;
14019;SDS011;7085;51.428;6.796;2023-02-28T08:16:04;6.10;;;2.70;;
14019;SDS011;7085;51.428;6.796;2023-02-28T08:18:33;4.67;;;2.50;;
14019;SDS011;7085;51.428;6.796;2023-02-28T08:21:05;5.80;;;3.10;;
14019;SDS011;7085;51.428;6.796;2023-02-28T08:23:32;5.20;;;2.67;;
14019;SDS011;7085;51.428;6.796;2023-02-28T08:26:00;4.73;;;2.47;;
14019;SDS011;7085;51.428;6.796;2023-02-28T08:28:27;4.50;;;2.47;;
14019;SDS011;7085;51.428;6.796;2023-02-28T08:30:54;2.63;;;2.40;;
14019;SDS011;7085;51.428;6.796;2023-02-28T08:33:21;6.57;;;2.70;;
14019;SDS011;7085;51.428;6.796;2023-02-28T08:35:50;2.97;;;2.05;;
14019;SDS011;7085;51.428;6.796;2023-02-28T08:38:18;3.28;;;2.38;;
14019;SDS011;7085;51.428;6.796;2023-02-28T08:40:45;5.22;;;2.70;;
14019;SDS011;7085;51.428;6.796;2023-02-28T08:43:12;2.97;;;2.33;;
14019;SDS011;7085;51.428;6.796;2023-02-28T08:45:39;3.75;;;2.13;;
14019;SDS011;7085;51.428;6.796;2023-02-28T08:48:06;4.13;;;2.10;;
14019;SDS011;7085;51.428;6.796;2023-02-28T08:50:34;3.00;;;2.40;;
14019;SDS011;7085;51.428;6.796;2023-02-28T08:53:02;4.03;;;2.33;;
14019;SDS011;7085;51.428;6.796;2023-02-28T08:55:29;2.72;;;2.53;;
14019;SDS011;7085;51.428;6.796;2023-02-28T08:57:56;3.50;;;2.15;;
14019;SDS011;7085;51.428;6.796;2023-02-28T09:00:23;2.28;;;2.08;;
14019;SDS011;7085;51.428;6.796;2023-02-28T09:02:51;5.22;;;2.28;;
14019;SDS011;7085;51.428;6.796;2023-02-28T09:05:18;2.33;;;2.08;;
14019;SDS011;7085;51.428;6.796;2023-02-28T09:07:45;3.75;;;2.00;;
14019;SDS011;7085;51.428;6.796;2023-02-28T09:10:14;5.72;;;2.10;;
14019;SDS011;7085;51.428;6.796;2023-02-28T09:12:41;2.28;;;1.73;;
14019;SDS011;7085;51.428;6.796;2023-02-28T09:15:10;6.28;;;2.45;;
14019;SDS011;7085;51.428;6.796;2023-02-28T09:17:38;2.92;;;2.00;;
14019;SDS011;7085;51.428;6.796;2023-02-28T09:20:05;2.28;;;2.05;;
14019;SDS011;7085;51.428;6.796;2023-02-28T09:22:32;2.65;;;2.00;;
14019;SDS011;7085;51.428;6.796;2023-02-28T09:25:00;3.15;;;1.80;;
14019;SDS011;7085;51.428;6.796;2023-02-28T09:27:28;2.45;;;2.03;;
14019;SDS011;7085;51.428;6.796;2023-02-28T09:29:55;5.00;;;2.08;;
14019;SDS011;7085;51.428;6.796;2023-02-28T09:32:22;2.33;;;2.03;;
14019;SDS011;7085;51.428;6.796;2023-02-28T09:34:49;4.35;;;2.10;;
14019;SDS011;7085;51.428;6.796;2023-02-28T09:37:16;4.90;;;1.90;;
14019;SDS011;7085;51.428;6.796;2023-02-28T09:39:44;2.28;;;1.95;;
14019;SDS011;7085;51.428;6.796;2023-02-28T09:42:13;3.55;;;2.00;;
14019;SDS011;7085;51.428;6.796;2023-02-28T09:44:45;2.92;;;2.00;;
14019;SDS011;7085;51.428;6.796;2023-02-28T09:47:14;3.47;;;1.98;;
14019;SDS011;7085;51.428;6.796;2023-02-28T09:49:46;3.03;;;2.08;;
14019;SDS011;7085;51.428;6.796;2023-02-28T09:52:14;3.53;;;2.00;;
14019;SDS011;7085;51.428;6.796;2023-02-28T09:54:42;2.13;;;1.80;;
14019;SDS011;7085;51.428;6.796;2023-02-28T09:57:15;2.80;;;1.80;;
14019;SDS011;7085;51.428;6.796;2023-02-28T09:59:48;2.08;;;1.80;;
14019;SDS011;7085;51.428;6.796;2023-02-28T10:02:35;2.60;;;2.20;;
14019;SDS011;7085;51.428;6.796;2023-02-28T10:05:06;3.83;;;1.63;;
14019;SDS011;7085;51.428;6.796;2023-02-28T10:07:38;2.03;;;1.75;;
14019;SDS011;7085;51.428;6.796;2023-02-28T10:10:14;5.07;;;2.10;;
14019;SDS011;7085;51.428;6.796;2023-02-28T10:12:41;1.95;;;1.83;;
14019;SDS011;7085;51.428;6.796;2023-02-28T10:15:14;2.22;;;1.83;;
14019;SDS011;7085;51.428;6.796;2023-02-28T10:17:42;2.00;;;1.70;;
14019;SDS011;7085;51.428;6.796;2023-02-28T10:20:10;3.13;;;1.73;;
14019;SDS011;7085;51.428;6.796;2023-02-28T10:22:41;2.00;;;1.67;;
14019;SDS011;7085;51.428;6.796;2023-02-28T10:25:17;2.58;;;1.50;;
14019;SDS011;7085;51.428;6.796;2023-02-28T10:27:44;2.10;;;1.90;;
14019;SDS011;7085;51.428;6.796;2023-02-28T10:30:13;1.60;;;1.50;;
14019;SDS011;7085;51.428;6.796;2023-02-28T10:32:41;1.70;;;1.58;;
14019;SDS011;7085;51.428;6.796;2023-02-28T10:35:14;2.30;;;1.60;;
14019;SDS011;7085;51.428;6.796;2023-02-28T10:37:42;1.77;;;1.52;;
14019;SDS011;7085;51.428;6.796;2023-02-28T10:40:26;2.55;;;1.45;;
14019;SDS011;7085;51.428;6.796;2023-02-28T10:42:56;1.50;;;1.40;;
14019;SDS011;7085;51.428;6.796;2023-02-28T10:45:25;2.85;;;2.08;;
14019;SDS011;7085;51.428;6.796;2023-02-28T10:47:54;2.08;;;1.88;;
14019;SDS011;7085;51.428;6.796;2023-02-28T10:50:29;2.50;;;1.50;;
14019;SDS011;7085;51.428;6.796;2023-02-28T10:53:05;1.90;;;1.80;;
14019;SDS011;7085;51.428;6.796;2023-02-28T10:55:34;1.58;;;1.48;;
14019;SDS011;7085;51.428;6.796;2023-02-28T10:58:01;1.70;;;1.60;;
14019;SDS011;7085;51.428;6.796;2023-02-28T11:00:32;2.20;;;1.35;;
14019;SDS011;7085;51.428;6.796;2023-02-28T11:02:59;1.30;;;1.20;;
14019;SDS011;7085;51.428;6.796;2023-02-28T11:05:27;1.48;;;1.38;;
14019;SDS011;7085;51.428;6.796;2023-02-28T11:07:55;1.88;;;1.48;;
14019;SDS011;7085;51.428;6.796;2023-02-28T11:10:24;2.45;;;1.55;;
14019;SDS011;7085;51.428;6.796;2023-02-28T11:12:54;2.13;;;1.50;;
14019;SDS011;7085;51.428;6.796;2023-02-28T11:15:22;2.05;;;1.35;;
14019;SDS011;7085;51.428;6.796;2023-02-28T11:17:54;1.33;;;1.23;;
14019;SDS011;7085;51.428;6.796;2023-02-28T11:20:22;1.02;;;1.00;;
14019;SDS011;7085;51.428;6.796;2023-02-28T11:22:50;1.20;;;1.10;;
14019;SDS011;7085;51.428;6.796;2023-02-28T11:25:19;1.40;;;1.30;;
14019;SDS011;7085;51.428;6.796;2023-02-28T11:27:48;1.42;;;1.33;;
14019;SDS011;7085;51.428;6.796;2023-02-28T11:30:22;2.63;;;1.50;;
14019;SDS011;7085;51.428;6.796;2023-02-28T11:32:50;1.20;;;1.10;;
14019;SDS011;7085;51.428;6.796;2023-02-28T11:35:21;1.25;;;1.10;;
14019;SDS011;7085;51.428;6.796;2023-02-28T11:37:50;1.98;;;1.38;;
14019;SDS011;7085;51.428;6.796;2023-02-28T11:40:18;1.10;;;1.10;;
14019;SDS011;7085;51.428;6.796;2023-02-28T11:42:48;1.88;;;1.42;;
14019;SDS011;7085;51.428;6.796;2023-02-28T11:45:20;1.75;;;1.30;;
14019;SDS011;7085;51.428;6.796;2023-02-28T11:47:51;1.38;;;1.25;;
14019;SDS011;7085;51.428;6.796;2023-02-28T11:50:37;1.30;;;1.20;;
14019;SDS011;7085;51.428;6.796;2023-02-28T11:53:10;1.63;;;1.52;;
14019;SDS011;7085;51.428;6.796;2023-02-28T11:55:42;2.13;;;1.33;;
14019;SDS011;7085;51.428;6.796;2023-02-28T11:58:14;1.77;;;1.20;;
14019;SDS011;7085;51.428;6.796;2023-02-28T12:00:47;4.03;;;1.92;;
14019;SDS011;7085;51.428;6.796;2023-02-28T12:03:23;1.70;;;1.50;;
14019;SDS011;7085;51.428;6.796;2023-02-28T12:05:56;2.25;;;1.35;;
14019;SDS011;7085;51.428;6.796;2023-02-28T12:08:27;3.88;;;1.77;;
14019;SDS011;7085;51.428;6.796;2023-02-28T12:11:02;3.35;;;1.50;;
14019;SDS011;7085;51.428;6.796;2023-02-28T12:13:34;2.25;;;1.77;;
14019;SDS011;7085;51.428;6.796;2023-02-28T12:18:52;1.83;;;1.45;;
14019;SDS011;7085;51.428;6.796;2023-02-28T12:21:24;1.77;;;1.55;;
14019;SDS011;7085;51.428;6.796;2023-02-28T12:23:59;1.88;;;1.60;;
14019;SDS011;7085;51.428;6.796;2023-02-28T12:26:31;1.50;;;1.40;;
14019;SDS011;7085;51.428;6.796;2023-02-28T12:29:02;1.60;;;1.50;;
14019;SDS011;7085;51.428;6.796;2023-02-28T12:31:33;2.55;;;1.65;;
14019;SDS011;7085;51.428;6.796;2023-02-28T12:34:03;1.50;;;1.40;;
14019;SDS011;7085;51.428;6.796;2023-02-28T12:36:32;1.50;;;1.40;;
14019;SDS011;7085;51.428;6.796;2023-02-28T12:39:01;2.17;;;1.50;;
14019;SDS011;7085;51.428;6.796;2023-02-28T12:41:33;3.13;;;1.92;;
14019;SDS011;7085;51.428;6.796;2023-02-28T12:44:02;1.80;;;1.70;;
14019;SDS011;7085;51.428;6.796;2023-02-28T12:46:32;2.00;;;1.83;;
14019;SDS011;7085;51.428;6.796;2023-02-28T12:49:00;1.90;;;1.40;;
14019;SDS011;7085;51.428;6.796;2023-02-28T12:51:28;2.15;;;1.90;;
14019;SDS011;7085;51.428;6.796;2023-02-28T12:53:59;1.88;;;1.65;;
14019;SDS011;7085;51.428;6.796;2023-02-28T12:56:32;1.77;;;1.65;;
14019;SDS011;7085;51.428;6.796;2023-02-28T12:59:01;2.20;;;1.60;;
14019;SDS011;7085;51.428;6.796;2023-02-28T13:01:36;2.03;;;1.75;;
14019;SDS011;7085;51.428;6.796;2023-02-28T13:04:21;2.83;;;1.38;;
14019;SDS011;7085;51.428;6.796;2023-02-28T13:06:57;1.70;;;1.60;;
14019;SDS011;7085;51.428;6.796;2023-02-28T13:09:28;3.38;;;1.70;;
14019;SDS011;7085;51.428;6.796;2023-02-28T13:11:55;1.80;;;1.70;;
14019;SDS011;7085;51.428;6.796;2023-02-28T13:14:24;1.70;;;1.60;;
14019;SDS011;7085;51.428;6.796;2023-02-28T13:16:58;2.35;;;1.60;;
14019;SDS011;7085;51.428;6.796;2023-02-28T13:19:26;2.45;;;1.63;;
14019;SDS011;7085;51.428;6.796;2023-02-28T13:21:54;2.05;;;1.88;;
14019;SDS011;7085;51.428;6.796;2023-02-28T13:27:20;3.03;;;1.83;;
14019;SDS011;7085;51.428;6.796;2023-02-28T13:29:50;2.17;;;1.98;;
14019;SDS011;7085;51.428;6.796;2023-02-28T13:35:12;2.45;;;1.98;;
14019;SDS011;7085;51.428;6.796;2023-02-28T13:37:41;2.70;;;1.85;;
14019;SDS011;7085;51.428;6.796;2023-02-28T13:40:30;2.40;;;1.75;;
14019;SDS011;7085;51.428;6.796;2023-02-28T13:43:03;2.45;;;1.90;;
14019;SDS011;7085;51.428;6.796;2023-02-28T13:45:34;2.20;;;1.98;;
14019;SDS011;7085;51.428;6.796;2023-02-28T13:48:03;1.90;;;1.80;;
14019;SDS011;7085;51.428;6.796;2023-02-28T13:50:34;2.28;;;2.08;;
14019;SDS011;7085;51.428;6.796;2023-02-28T13:55:48;2.00;;;1.83;;
14019;SDS011;7085;51.428;6.796;2023-02-28T13:58:24;2.35;;;1.98;;
14019;SDS011;7085;51.428;6.796;2023-02-28T14:01:00;2.30;;;1.80;;
14019;SDS011;7085;51.428;6.796;2023-02-28T14:03:37;2.75;;;1.83;;
14019;SDS011;7085;51.428;6.796;2023-02-28T14:06:08;2.05;;;1.75;;
14019;SDS011;7085;51.428;6.796;2023-02-28T14:08:37;2.78;;;2.03;;
14019;SDS011;7085;51.428;6.796;2023-02-28T14:11:05;2.22;;;2.00;;
14019;SDS011;7085;51.428;6.796;2023-02-28T14:13:38;2.22;;;2.03;;
14019;SDS011;7085;51.428;6.796;2023-02-28T14:16:09;2.40;;;2.00;;
14019;SDS011;7085;51.428;6.796;2023-02-28T14:18:37;4.25;;;1.88;;
14019;SDS011;7085;51.428;6.796;2023-02-28T14:21:11;2.50;;;2.28;;
14019;SDS011;7085;51.428;6.796;2023-02-28T14:26:33;2.45;;;2.25;;
14019;SDS011;7085;51.428;6.796;2023-02-28T14:29:11;2.25;;;2.00;;
14019;SDS011;7085;51.428;6.796;2023-02-28T14:31:43;4.80;;;2.40;;
14019;SDS011;7085;51.428;6.796;2023-02-28T14:34:21;2.13;;;1.95;;
14019;SDS011;7085;51.428;6.796;2023-02-28T14:36:51;2.92;;;2.28;;
14019;SDS011;7085;51.428;6.796;2023-02-28T14:39:20;4.60;;;2.92;;
14019;SDS011;7085;51.428;6.796;2023-02-28T14:41:48;2.80;;;2.10;;
14019;SDS011;7085;51.428;6.796;2023-02-28T14:44:17;2.50;;;2.30;;
14019;SDS011;7085;51.428;6.796;2023-02-28T14:46:45;4.18;;;2.22;;
14019;SDS011;7085;51.428;6.796;2023-02-28T14:49:17;3.10;;;2.28;;
14019;SDS011;7085;51.428;6.796;2023-02-28T14:51:45;4.03;;;2.30;;
14019;SDS011;7085;51.428;6.796;2023-02-28T14:54:13;3.45;;;2.20;;
14019;SDS011;7085;51.428;6.796;2023-02-28T14:56:41;2.40;;;2.20;;
14019;SDS011;7085;51.428;6.796;2023-02-28T14:59:22;2.95;;;2.20;;
14019;SDS011;7085;51.428;6.796;2023-02-28T15:01:50;2.65;;;2.45;;
14019;SDS011;7085;51.428;6.796;2023-02-28T15:04:18;3.05;;;2.33;;
14019;SDS011;7085;51.428;6.796;2023-02-28T15:09:31;3.30;;;2.40;;
14019;SDS011;7085;51.428;6.796;2023-02-28T15:11:58;2.35;;;2.20;;
14019;SDS011;7085;51.428;6.796;2023-02-28T15:14:26;2.65;;;2.03;;
14019;SDS011;7085;51.428;6.796;2023-02-28T15:16:55;4.30;;;2.43;;
14019;SDS011;7085;51.428;6.796;2023-02-28T15:19:25;2.80;;;2.43;;
14019;SDS011;7085;51.428;6.796;2023-02-28T15:21:54;2.92;;;2.05;;
14019;SDS011;7085;51.428;6.796;2023-02-28T15:24:26;2.50;;;2.10;;
14019;SDS011;7085;51.428;6.796;2023-02-28T15:26:56;2.75;;;2.00;;
14019;SDS011;7085;51.428;6.796;2023-02-28T15:29:24;3.17;;;2.35;;
14019;SDS011;7085;51.428;6.796;2023-02-28T15:31:56;2.53;;;2.33;;
14019;SDS011;7085;51.428;6.796;2023-02-28T15:34:26;2.50;;;2.20;;
14019;SDS011;7085;51.428;6.796;2023-02-28T15:36:54;2.72;;;2.53;;
14019;SDS011;7085;51.428;6.796;2023-02-28T15:39:22;2.55;;;2.35;;
14019;SDS011;7085;51.428;6.796;2023-02-28T15:41:50;5.37;;;2.90;;
14019;SDS011;7085;51.428;6.796;2023-02-28T15:44:22;2.33;;;1.95;;
14019;SDS011;7085;51.428;6.796;2023-02-28T15:46:56;2.78;;;2.53;;
14019;SDS011;7085;51.428;6.796;2023-02-28T15:49:24;2.30;;;2.10;;
14019;SDS011;7085;51.428;6.796;2023-02-28T15:51:52;3.83;;;2.72;;
14019;SDS011;7085;51.428;6.796;2023-02-28T15:54:21;2.75;;;2.50;;
14019;SDS011;7085;51.428;6.796;2023-02-28T15:56:52;2.90;;;2.37;;
14019;SDS011;7085;51.428;6.796;2023-02-28T15:59:21;2.83;;;2.30;;
14019;SDS011;7085;51.428;6.796;2023-02-28T16:02:03;3.83;;;2.77;;
14019;SDS011;7085;51.428;6.796;2023-02-28T16:04:53;4.73;;;2.77;;
14019;SDS011;7085;51.428;6.796;2023-02-28T16:07:21;3.13;;;2.50;;
14019;SDS011;7085;51.428;6.796;2023-02-28T16:09:49;2.40;;;2.20;;
14019;SDS011;7085;51.428;6.796;2023-02-28T16:12:16;2.38;;;2.13;;
14019;SDS011;7085;51.428;6.796;2023-02-28T16:14:43;2.83;;;2.63;;
14019;SDS011;7085;51.428;6.796;2023-02-28T16:17:15;3.35;;;2.65;;
14019;SDS011;7085;51.428;6.796;2023-02-28T16:19:43;3.23;;;2.57;;
14019;SDS011;7085;51.428;6.796;2023-02-28T16:22:10;2.60;;;2.33;;
14019;SDS011;7085;51.428;6.796;2023-02-28T16:24:37;3.40;;;2.53;;
14019;SDS011;7085;51.428;6.796;2023-02-28T16:27:05;3.87;;;2.83;;
14019;SDS011;7085;51.428;6.796;2023-02-28T16:29:33;4.07;;;3.03;;
14019;SDS011;7085;51.428;6.796;2023-02-28T16:32:02;3.50;;;2.70;;
14019;SDS011;7085;51.428;6.796;2023-02-28T16:34:32;4.43;;;2.63;;
14019;SDS011;7085;51.428;6.796;2023-02-28T16:36:59;4.05;;;2.40;;
14019;SDS011;7085;51.428;6.796;2023-02-28T16:39:26;2.90;;;2.67;;
14019;SDS011;7085;51.428;6.796;2023-02-28T16:41:53;2.93;;;2.73;;
14019;SDS011;7085;51.428;6.796;2023-02-28T16:44:23;3.75;;;2.75;;
14019;SDS011;7085;51.428;6.796;2023-02-28T16:46:51;4.38;;;3.22;;
14019;SDS011;7085;51.428;6.796;2023-02-28T16:49:18;2.87;;;2.50;;
14019;SDS011;7085;51.428;6.796;2023-02-28T16:51:47;2.80;;;2.60;;
14019;SDS011;7085;51.428;6.796;2023-02-28T16:54:14;3.17;;;2.57;;
14019;SDS011;7085;51.428;6.796;2023-02-28T16:56:42;3.45;;;3.10;;
14019;SDS011;7085;51.428;6.796;2023-02-28T16:59:10;3.97;;;2.60;;
14019;SDS011;7085;51.428;6.796;2023-02-28T17:01:38;3.60;;;2.90;;
14019;SDS011;7085;51.428;6.796;2023-02-28T17:04:05;2.80;;;2.60;;
14019;SDS011;7085;51.428;6.796;2023-02-28T17:06:32;3.15;;;2.83;;
14019;SDS011;7085;51.428;6.796;2023-02-28T17:09:00;3.93;;;2.80;;
14019;SDS011;7085;51.428;6.796;2023-02-28T17:11:27;3.40;;;2.60;;
14019;SDS011;7085;51.428;6.796;2023-02-28T17:13:55;4.13;;;2.67;;
14019;SDS011;7085;51.428;6.796;2023-02-28T17:16:22;5.83;;;2.73;;
14019;SDS011;7085;51.428;6.796;2023-02-28T17:18:50;5.43;;;3.07;;
14019;SDS011;7085;51.428;6.796;2023-02-28T17:21:17;2.67;;;2.40;;
14019;SDS011;7085;51.428;6.796;2023-02-28T17:23:44;3.33;;;2.88;;
14019;SDS011;7085;51.428;6.796;2023-02-28T17:26:14;3.97;;;3.00;;
14019;SDS011;7085;51.428;6.796;2023-02-28T17:28:42;4.27;;;3.00;;
14019;SDS011;7085;51.428;6.796;2023-02-28T17:31:09;2.63;;;2.43;;
14019;SDS011;7085;51.428;6.796;2023-02-28T17:33:36;3.38;;;2.35;;
14019;SDS011;7085;51.428;6.796;2023-02-28T17:36:03;2.80;;;2.40;;
14019;SDS011;7085;51.428;6.796;2023-02-28T17:38:31;3.73;;;2.70;;
14019;SDS011;7085;51.428;6.796;2023-02-28T17:40:58;3.92;;;2.80;;
14019;SDS011;7085;51.428;6.796;2023-02-28T17:43:26;4.23;;;2.60;;
14019;SDS011;7085;51.428;6.796;2023-02-28T17:45:54;2.80;;;2.57;;
14019;SDS011;7085;51.428;6.796;2023-02-28T17:48:21;3.70;;;2.95;;
14019;SDS011;7085;51.428;6.796;2023-02-28T17:50:48;5.43;;;3.17;;
14019;SDS011;7085;51.428;6.796;2023-02-28T17:53:16;4.13;;;2.90;;
14019;SDS011;7085;51.428;6.796;2023-02-28T17:55:43;2.97;;;2.67;;
14019;SDS011;7085;51.428;6.796;2023-02-28T17:58:10;3.40;;;2.67;;
14019;SDS011;7085;51.428;6.796;2023-02-28T18:00:39;4.07;;;2.50;;
14019;SDS011;7085;51.428;6.796;2023-02-28T18:03:06;3.53;;;2.90;;
14019;SDS011;7085;51.428;6.796;2023-02-28T18:05:34;5.40;;;2.78;;
14019;SDS011;7085;51.428;6.796;2023-02-28T18:08:02;3.20;;;2.90;;
14019;SDS011;7085;51.428;6.796;2023-02-28T18:10:29;4.18;;;2.60;;
14019;SDS011;7085;51.428;6.796;2023-02-28T18:12:58;3.15;;;2.90;;
14019;SDS011;7085;51.428;6.796;2023-02-28T18:15:25;3.70;;;2.77;;
14019;SDS011;7085;51.428;6.796;2023-02-28T18:17:54;4.80;;;2.90;;
14019;SDS011;7085;51.428;6.796;2023-02-28T18:20:21;5.07;;;3.27;;
14019;SDS011;7085;51.428;6.796;2023-02-28T18:22:48;4.37;;;3.00;;
14019;SDS011;7085;51.428;6.796;2023-02-28T18:25:15;3.60;;;3.17;;
14019;SDS011;7085;51.428;6.796;2023-02-28T18:27:42;3.63;;;3.15;;
14019;SDS011;7085;51.428;6.796;2023-02-28T18:30:18;3.72;;;3.03;;
14019;SDS011;7085;51.428;6.796;2023-02-28T18:32:45;4.25;;;3.15;;
14019;SDS011;7085;51.428;6.796;2023-02-28T18:35:13;4.18;;;3.25;;
14019;SDS011;7085;51.428;6.796;2023-02-28T18:37:47;3.93;;;3.00;;
14019;SDS011;7085;51.428;6.796;2023-02-28T18:40:15;3.33;;;3.03;;
14019;SDS011;7085;51.428;6.796;2023-02-28T18:42:42;5.55;;;3.22;;
14019;SDS011;7085;51.428;6.796;2023-02-28T18:45:09;5.53;;;2.83;;
14019;SDS011;7085;51.428;6.796;2023-02-28T18:47:36;3.42;;;3.03;;
14019;SDS011;7085;51.428;6.796;2023-02-28T18:50:04;6.27;;;3.20;;
14019;SDS011;7085;51.428;6.796;2023-02-28T18:52:32;6.43;;;3.80;;
14019;SDS011;7085;51.428;6.796;2023-02-28T18:54:59;6.00;;;3.20;;
14019;SDS011;7085;51.428;6.796;2023-02-28T18:57:27;4.50;;;2.93;;
14019;SDS011;7085;51.428;6.796;2023-02-28T18:59:54;5.47;;;3.57;;
14019;SDS011;7085;51.428;6.796;2023-02-28T19:02:21;7.93;;;3.60;;
14019;SDS011;7085;51.428;6.796;2023-02-28T19:04:48;3.87;;;3.47;;
14019;SDS011;7085;51.428;6.796;2023-02-28T19:07:16;7.40;;;3.70;;
14019;SDS011;7085;51.428;6.796;2023-02-28T19:09:44;6.27;;;3.57;;
14019;SDS011;7085;51.428;6.796;2023-02-28T19:12:11;4.47;;;3.07;;
14019;SDS011;7085;51.428;6.796;2023-02-28T19:14:39;5.00;;;3.47;;
14019;SDS011;7085;51.428;6.796;2023-02-28T19:17:06;6.07;;;3.80;;
14019;SDS011;7085;51.428;6.796;2023-02-28T19:19:33;4.83;;;3.33;;
14019;SDS011;7085;51.428;6.796;2023-02-28T19:22:00;5.35;;;3.88;;
14019;SDS011;7085;51.428;6.796;2023-02-28T19:24:27;5.43;;;3.60;;
14019;SDS011;7085;51.428;6.796;2023-02-28T19:26:55;6.40;;;4.17;;
14019;SDS011;7085;51.428;6.796;2023-02-28T19:29:22;10.40;;;4.00;;
14019;SDS011;7085;51.428;6.796;2023-02-28T19:31:49;6.10;;;3.60;;